sensor_id;sensor_type;location;lat;lon;timestamp;temperature;humidity
21807;DHT22;11065;50.786;7.840;2023-09-07T00:01:44;19.00;48.30
21807;DHT22;11065;50.786;7.840;2023-09-07T00:04:12;19.00;48.40
21807;DHT22;11065;50.786;7.840;2023-09-07T00:06:41;19.00;48.40
21807;DHT22;11065;50.786;7.840;2023-09-07T00:09:10;18.90;48.40
21807;DHT22;11065;50.786;7.840;2023-09-07T00:11:39;18.90;48.50
21807;DHT22;11065;50.786;7.840;2023-09-07T00:14:08;18.80;48.50
21807;DHT22;11065;50.786;7.840;2023-09-07T00:16:36;18.80;48.60
21807;DHT22;11065;50.786;7.840;2023-09-07T00:19:05;18.80;48.80
21807;DHT22;11065;50.786;7.840;2023-09-07T00:21:33;18.80;48.90
21807;DHT22;11065;50.786;7.840;2023-09-07T00:24:02;18.70;48.90
21807;DHT22;11065;50.786;7.840;2023-09-07T00:26:32;18.70;49.10
21807;DHT22;11065;50.786;7.840;2023-09-07T00:29:00;18.70;49.00
21807;DHT22;11065;50.786;7.840;2023-09-07T00:31:28;18.60;49.00
21807;DHT22;11065;50.786;7.840;2023-09-07T00:33:56;18.60;49.10
21807;DHT22;11065;50.786;7.840;2023-09-07T00:36:24;18.60;49.20
21807;DHT22;11065;50.786;7.840;2023-09-07T00:38:52;18.50;49.30
21807;DHT22;11065;50.786;7.840;2023-09-07T00:41:21;18.50;49.40
21807;DHT22;11065;50.786;7.840;2023-09-07T00:43:49;18.50;49.50
21807;DHT22;11065;50.786;7.840;2023-09-07T00:46:17;18.50;49.50
21807;DHT22;11065;50.786;7.840;2023-09-07T00:48:45;18.50;49.60
21807;DHT22;11065;50.786;7.840;2023-09-07T00:51:13;18.40;49.60
21807;DHT22;11065;50.786;7.840;2023-09-07T00:53:41;18.40;49.60
21807;DHT22;11065;50.786;7.840;2023-09-07T00:56:10;18.40;49.70
21807;DHT22;11065;50.786;7.840;2023-09-07T00:58:40;18.40;49.70
21807;DHT22;11065;50.786;7.840;2023-09-07T01:01:08;18.30;49.80
21807;DHT22;11065;50.786;7.840;2023-09-07T01:03:36;18.30;49.80
21807;DHT22;11065;50.786;7.840;2023-09-07T01:06:12;18.20;49.90
21807;DHT22;11065;50.786;7.840;2023-09-07T01:08:42;18.30;50.10
21807;DHT22;11065;50.786;7.840;2023-09-07T01:11:15;18.20;50.00
21807;DHT22;11065;50.786;7.840;2023-09-07T01:13:45;18.20;50.10
21807;DHT22;11065;50.786;7.840;2023-09-07T01:16:13;18.20;50.00
21807;DHT22;11065;50.786;7.840;2023-09-07T01:18:42;18.10;50.10
21807;DHT22;11065;50.786;7.840;2023-09-07T01:21:11;18.10;50.00
21807;DHT22;11065;50.786;7.840;2023-09-07T01:23:42;18.10;50.20
21807;DHT22;11065;50.786;7.840;2023-09-07T01:26:11;18.00;50.30
21807;DHT22;11065;50.786;7.840;2023-09-07T01:28:40;18.00;50.30
21807;DHT22;11065;50.786;7.840;2023-09-07T01:31:08;18.00;50.30
21807;DHT22;11065;50.786;7.840;2023-09-07T01:33:37;18.00;50.30
21807;DHT22;11065;50.786;7.840;2023-09-07T01:36:06;17.90;50.30
21807;DHT22;11065;50.786;7.840;2023-09-07T01:38:34;17.90;50.40
21807;DHT22;11065;50.786;7.840;2023-09-07T01:41:03;17.90;50.40
21807;DHT22;11065;50.786;7.840;2023-09-07T01:43:31;17.90;50.50
21807;DHT22;11065;50.786;7.840;2023-09-07T01:45:59;17.80;50.40
21807;DHT22;11065;50.786;7.840;2023-09-07T01:48:26;17.80;50.50
21807;DHT22;11065;50.786;7.840;2023-09-07T01:50:55;17.70;50.60
21807;DHT22;11065;50.786;7.840;2023-09-07T01:53:23;17.70;50.60
21807;DHT22;11065;50.786;7.840;2023-09-07T01:55:54;17.70;50.70
21807;DHT22;11065;50.786;7.840;2023-09-07T01:58:23;17.70;50.80
21807;DHT22;11065;50.786;7.840;2023-09-07T02:00:56;17.60;50.80
21807;DHT22;11065;50.786;7.840;2023-09-07T02:03:25;17.60;50.80
21807;DHT22;11065;50.786;7.840;2023-09-07T02:05:53;17.60;50.80
21807;DHT22;11065;50.786;7.840;2023-09-07T02:08:21;17.50;50.90
21807;DHT22;11065;50.786;7.840;2023-09-07T02:10:49;17.50;50.90
21807;DHT22;11065;50.786;7.840;2023-09-07T02:13:17;17.50;51.00
21807;DHT22;11065;50.786;7.840;2023-09-07T02:15:46;17.50;51.10
21807;DHT22;11065;50.786;7.840;2023-09-07T02:18:14;17.50;51.20
21807;DHT22;11065;50.786;7.840;2023-09-07T02:20:42;17.40;51.10
21807;DHT22;11065;50.786;7.840;2023-09-07T02:23:11;17.40;51.20
21807;DHT22;11065;50.786;7.840;2023-09-07T02:25:40;17.40;51.20
21807;DHT22;11065;50.786;7.840;2023-09-07T02:28:09;17.30;51.30
21807;DHT22;11065;50.786;7.840;2023-09-07T02:30:36;17.30;51.30
21807;DHT22;11065;50.786;7.840;2023-09-07T02:33:06;17.30;51.30
21807;DHT22;11065;50.786;7.840;2023-09-07T02:35:36;17.30;51.50
21807;DHT22;11065;50.786;7.840;2023-09-07T02:38:04;17.20;51.40
21807;DHT22;11065;50.786;7.840;2023-09-07T02:40:33;17.20;51.40
21807;DHT22;11065;50.786;7.840;2023-09-07T02:43:07;17.20;51.50
21807;DHT22;11065;50.786;7.840;2023-09-07T02:45:35;17.20;51.50
21807;DHT22;11065;50.786;7.840;2023-09-07T02:48:05;17.20;51.50
21807;DHT22;11065;50.786;7.840;2023-09-07T02:50:35;17.10;51.60
21807;DHT22;11065;50.786;7.840;2023-09-07T02:53:03;17.10;51.50
21807;DHT22;11065;50.786;7.840;2023-09-07T02:55:32;17.10;51.70
21807;DHT22;11065;50.786;7.840;2023-09-07T02:58:03;17.10;51.70
21807;DHT22;11065;50.786;7.840;2023-09-07T03:00:31;17.00;51.80
21807;DHT22;11065;50.786;7.840;2023-09-07T03:02:59;17.00;51.80
21807;DHT22;11065;50.786;7.840;2023-09-07T03:05:28;17.00;51.80
21807;DHT22;11065;50.786;7.840;2023-09-07T03:07:56;17.00;51.90
21807;DHT22;11065;50.786;7.840;2023-09-07T03:10:24;16.90;51.80
21807;DHT22;11065;50.786;7.840;2023-09-07T03:12:52;16.90;51.90
21807;DHT22;11065;50.786;7.840;2023-09-07T03:15:21;16.90;51.90
21807;DHT22;11065;50.786;7.840;2023-09-07T03:17:49;16.90;52.00
21807;DHT22;11065;50.786;7.840;2023-09-07T03:20:18;16.90;52.00
21807;DHT22;11065;50.786;7.840;2023-09-07T03:22:50;16.80;52.10
21807;DHT22;11065;50.786;7.840;2023-09-07T03:25:19;16.80;52.10
21807;DHT22;11065;50.786;7.840;2023-09-07T03:27:47;16.80;52.10
21807;DHT22;11065;50.786;7.840;2023-09-07T03:30:15;16.80;52.20
21807;DHT22;11065;50.786;7.840;2023-09-07T03:32:43;16.70;52.10
21807;DHT22;11065;50.786;7.840;2023-09-07T03:35:11;16.70;52.10
21807;DHT22;11065;50.786;7.840;2023-09-07T03:37:39;16.70;52.10
21807;DHT22;11065;50.786;7.840;2023-09-07T03:40:09;16.70;52.20
21807;DHT22;11065;50.786;7.840;2023-09-07T03:42:38;16.60;52.30
21807;DHT22;11065;50.786;7.840;2023-09-07T03:45:08;16.60;52.30
21807;DHT22;11065;50.786;7.840;2023-09-07T03:47:37;16.60;52.30
21807;DHT22;11065;50.786;7.840;2023-09-07T03:50:06;16.60;52.30
21807;DHT22;11065;50.786;7.840;2023-09-07T03:52:34;16.50;52.30
21807;DHT22;11065;50.786;7.840;2023-09-07T03:55:04;16.50;52.30
21807;DHT22;11065;50.786;7.840;2023-09-07T03:57:34;16.50;52.40
21807;DHT22;11065;50.786;7.840;2023-09-07T04:00:03;16.50;52.50
21807;DHT22;11065;50.786;7.840;2023-09-07T04:02:43;16.40;52.50
21807;DHT22;11065;50.786;7.840;2023-09-07T04:05:11;16.40;52.50
21807;DHT22;11065;50.786;7.840;2023-09-07T04:07:39;16.40;52.50
21807;DHT22;11065;50.786;7.840;2023-09-07T04:10:09;16.40;52.50
21807;DHT22;11065;50.786;7.840;2023-09-07T04:12:38;16.30;52.60
21807;DHT22;11065;50.786;7.840;2023-09-07T04:15:07;16.30;52.70
21807;DHT22;11065;50.786;7.840;2023-09-07T04:17:36;16.30;52.70
21807;DHT22;11065;50.786;7.840;2023-09-07T04:20:08;16.30;52.70
21807;DHT22;11065;50.786;7.840;2023-09-07T04:22:38;16.30;52.70
21807;DHT22;11065;50.786;7.840;2023-09-07T04:25:07;16.20;52.70
21807;DHT22;11065;50.786;7.840;2023-09-07T04:27:35;16.20;52.80
21807;DHT22;11065;50.786;7.840;2023-09-07T04:30:07;16.20;52.80
21807;DHT22;11065;50.786;7.840;2023-09-07T04:32:36;16.20;52.90
21807;DHT22;11065;50.786;7.840;2023-09-07T04:35:06;16.20;52.90
21807;DHT22;11065;50.786;7.840;2023-09-07T04:37:34;16.10;52.90
21807;DHT22;11065;50.786;7.840;2023-09-07T04:40:04;16.10;52.90
21807;DHT22;11065;50.786;7.840;2023-09-07T04:42:32;16.10;53.00
21807;DHT22;11065;50.786;7.840;2023-09-07T04:45:00;16.10;53.00
21807;DHT22;11065;50.786;7.840;2023-09-07T04:47:29;16.00;53.00
21807;DHT22;11065;50.786;7.840;2023-09-07T04:49:57;16.00;53.00
21807;DHT22;11065;50.786;7.840;2023-09-07T04:52:25;16.00;53.00
21807;DHT22;11065;50.786;7.840;2023-09-07T04:54:53;16.00;53.00
21807;DHT22;11065;50.786;7.840;2023-09-07T04:57:21;16.00;53.10
21807;DHT22;11065;50.786;7.840;2023-09-07T04:59:49;15.90;53.10
21807;DHT22;11065;50.786;7.840;2023-09-07T05:02:17;15.90;53.10
21807;DHT22;11065;50.786;7.840;2023-09-07T05:04:47;15.90;53.20
21807;DHT22;11065;50.786;7.840;2023-09-07T05:07:14;15.90;53.30
21807;DHT22;11065;50.786;7.840;2023-09-07T05:09:42;15.90;53.30
21807;DHT22;11065;50.786;7.840;2023-09-07T05:12:10;15.90;53.30
21807;DHT22;11065;50.786;7.840;2023-09-07T05:14:38;15.90;53.40
21807;DHT22;11065;50.786;7.840;2023-09-07T05:17:06;15.80;53.40
21807;DHT22;11065;50.786;7.840;2023-09-07T05:19:35;15.90;53.50
21807;DHT22;11065;50.786;7.840;2023-09-07T05:22:04;15.80;53.50
21807;DHT22;11065;50.786;7.840;2023-09-07T05:24:32;15.80;53.60
21807;DHT22;11065;50.786;7.840;2023-09-07T05:27:00;15.80;53.60
21807;DHT22;11065;50.786;7.840;2023-09-07T05:29:29;15.80;53.60
21807;DHT22;11065;50.786;7.840;2023-09-07T05:31:57;15.80;53.60
21807;DHT22;11065;50.786;7.840;2023-09-07T05:34:29;15.80;53.60
21807;DHT22;11065;50.786;7.840;2023-09-07T05:36:57;15.80;53.70
21807;DHT22;11065;50.786;7.840;2023-09-07T05:39:26;15.80;53.80
21807;DHT22;11065;50.786;7.840;2023-09-07T05:41:54;15.80;53.90
21807;DHT22;11065;50.786;7.840;2023-09-07T05:44:22;15.80;53.90
21807;DHT22;11065;50.786;7.840;2023-09-07T05:46:50;15.80;54.00
21807;DHT22;11065;50.786;7.840;2023-09-07T05:49:18;15.80;54.00
21807;DHT22;11065;50.786;7.840;2023-09-07T05:51:46;15.80;54.10
21807;DHT22;11065;50.786;7.840;2023-09-07T05:54:15;15.80;54.20
21807;DHT22;11065;50.786;7.840;2023-09-07T05:56:44;15.80;54.30
21807;DHT22;11065;50.786;7.840;2023-09-07T05:59:12;15.80;54.40
21807;DHT22;11065;50.786;7.840;2023-09-07T06:01:40;15.80;54.50
21807;DHT22;11065;50.786;7.840;2023-09-07T06:04:08;15.90;54.60
21807;DHT22;11065;50.786;7.840;2023-09-07T06:06:37;15.80;54.70
21807;DHT22;11065;50.786;7.840;2023-09-07T06:09:05;15.90;54.90
21807;DHT22;11065;50.786;7.840;2023-09-07T06:11:33;15.90;54.90
21807;DHT22;11065;50.786;7.840;2023-09-07T06:14:03;15.90;55.00
21807;DHT22;11065;50.786;7.840;2023-09-07T06:16:32;15.90;55.10
21807;DHT22;11065;50.786;7.840;2023-09-07T06:19:00;15.90;55.10
21807;DHT22;11065;50.786;7.840;2023-09-07T06:21:28;16.00;55.20
21807;DHT22;11065;50.786;7.840;2023-09-07T06:23:56;16.00;55.20
21807;DHT22;11065;50.786;7.840;2023-09-07T06:26:24;16.00;55.20
21807;DHT22;11065;50.786;7.840;2023-09-07T06:28:52;16.00;55.30
21807;DHT22;11065;50.786;7.840;2023-09-07T06:31:21;16.10;55.30
21807;DHT22;11065;50.786;7.840;2023-09-07T06:33:49;16.10;55.50
21807;DHT22;11065;50.786;7.840;2023-09-07T06:36:17;16.10;55.40
21807;DHT22;11065;50.786;7.840;2023-09-07T06:39:04;16.10;55.50
21807;DHT22;11065;50.786;7.840;2023-09-07T06:41:32;16.20;55.50
21807;DHT22;11065;50.786;7.840;2023-09-07T06:44:00;16.20;55.60
21807;DHT22;11065;50.786;7.840;2023-09-07T06:46:30;16.20;55.60
21807;DHT22;11065;50.786;7.840;2023-09-07T06:48:58;16.30;55.80
21807;DHT22;11065;50.786;7.840;2023-09-07T06:51:26;16.30;56.00
21807;DHT22;11065;50.786;7.840;2023-09-07T06:53:54;16.40;56.10
21807;DHT22;11065;50.786;7.840;2023-09-07T06:56:25;16.40;56.20
21807;DHT22;11065;50.786;7.840;2023-09-07T06:58:54;16.40;56.10
21807;DHT22;11065;50.786;7.840;2023-09-07T07:01:22;16.50;56.20
21807;DHT22;11065;50.786;7.840;2023-09-07T07:03:52;16.50;56.40
21807;DHT22;11065;50.786;7.840;2023-09-07T07:06:21;16.60;57.20
21807;DHT22;11065;50.786;7.840;2023-09-07T07:08:49;16.60;56.80
21807;DHT22;11065;50.786;7.840;2023-09-07T07:11:17;16.60;56.70
21807;DHT22;11065;50.786;7.840;2023-09-07T07:13:45;16.70;56.80
21807;DHT22;11065;50.786;7.840;2023-09-07T07:16:13;16.80;56.80
21807;DHT22;11065;50.786;7.840;2023-09-07T07:18:41;16.80;57.20
21807;DHT22;11065;50.786;7.840;2023-09-07T07:21:29;16.90;57.50
21807;DHT22;11065;50.786;7.840;2023-09-07T07:23:57;17.00;57.80
21807;DHT22;11065;50.786;7.840;2023-09-07T07:26:25;17.10;57.60
21807;DHT22;11065;50.786;7.840;2023-09-07T07:28:53;17.10;57.50
21807;DHT22;11065;50.786;7.840;2023-09-07T07:31:21;17.20;57.60
21807;DHT22;11065;50.786;7.840;2023-09-07T07:33:49;17.30;57.60
21807;DHT22;11065;50.786;7.840;2023-09-07T07:36:17;17.40;57.60
21807;DHT22;11065;50.786;7.840;2023-09-07T07:38:47;17.50;57.70
21807;DHT22;11065;50.786;7.840;2023-09-07T07:41:15;17.50;57.70
21807;DHT22;11065;50.786;7.840;2023-09-07T07:43:43;17.60;57.90
21807;DHT22;11065;50.786;7.840;2023-09-07T07:46:11;17.70;57.70
21807;DHT22;11065;50.786;7.840;2023-09-07T07:48:43;17.80;57.80
21807;DHT22;11065;50.786;7.840;2023-09-07T07:51:11;17.90;58.10
21807;DHT22;11065;50.786;7.840;2023-09-07T07:53:41;18.00;58.10
21807;DHT22;11065;50.786;7.840;2023-09-07T07:56:18;18.10;58.20
21807;DHT22;11065;50.786;7.840;2023-09-07T07:58:49;18.20;58.40
21807;DHT22;11065;50.786;7.840;2023-09-07T08:01:19;18.30;58.00
21807;DHT22;11065;50.786;7.840;2023-09-07T08:03:50;18.40;58.80
21807;DHT22;11065;50.786;7.840;2023-09-07T08:06:19;18.50;58.60
21807;DHT22;11065;50.786;7.840;2023-09-07T08:08:47;18.60;58.70
21807;DHT22;11065;50.786;7.840;2023-09-07T08:11:15;18.70;59.00
21807;DHT22;11065;50.786;7.840;2023-09-07T08:13:45;18.80;59.00
21807;DHT22;11065;50.786;7.840;2023-09-07T08:16:13;19.00;59.00
21807;DHT22;11065;50.786;7.840;2023-09-07T08:18:41;19.10;58.80
21807;DHT22;11065;50.786;7.840;2023-09-07T08:21:13;19.30;58.70
21807;DHT22;11065;50.786;7.840;2023-09-07T08:23:42;19.40;58.60
21807;DHT22;11065;50.786;7.840;2023-09-07T08:26:11;19.60;58.70
21807;DHT22;11065;50.786;7.840;2023-09-07T08:28:42;19.70;58.50
21807;DHT22;11065;50.786;7.840;2023-09-07T08:31:14;19.90;58.50
21807;DHT22;11065;50.786;7.840;2023-09-07T08:33:48;20.00;59.90
21807;DHT22;11065;50.786;7.840;2023-09-07T08:36:17;20.50;63.80
21807;DHT22;11065;50.786;7.840;2023-09-07T08:38:50;21.30;68.90
21807;DHT22;11065;50.786;7.840;2023-09-07T08:41:20;22.50;73.30
21807;DHT22;11065;50.786;7.840;2023-09-07T08:43:49;23.90;76.30
21807;DHT22;11065;50.786;7.840;2023-09-07T08:46:23;25.40;75.20
21807;DHT22;11065;50.786;7.840;2023-09-07T08:48:51;27.10;69.20
21807;DHT22;11065;50.786;7.840;2023-09-07T08:51:19;28.70;68.10
21807;DHT22;11065;50.786;7.840;2023-09-07T08:53:49;30.40;63.80
21807;DHT22;11065;50.786;7.840;2023-09-07T08:56:17;32.00;60.50
21807;DHT22;11065;50.786;7.840;2023-09-07T08:58:46;33.40;57.90
21807;DHT22;11065;50.786;7.840;2023-09-07T09:01:16;34.70;55.60
21807;DHT22;11065;50.786;7.840;2023-09-07T09:03:46;36.00;53.90
21807;DHT22;11065;50.786;7.840;2023-09-07T09:06:17;37.10;51.60
21807;DHT22;11065;50.786;7.840;2023-09-07T09:08:47;38.20;50.70
21807;DHT22;11065;50.786;7.840;2023-09-07T09:11:16;39.20;49.80
21807;DHT22;11065;50.786;7.840;2023-09-07T09:13:45;40.00;48.10
21807;DHT22;11065;50.786;7.840;2023-09-07T09:16:14;40.80;46.60
21807;DHT22;11065;50.786;7.840;2023-09-07T09:18:49;41.70;45.40
21807;DHT22;11065;50.786;7.840;2023-09-07T09:21:19;42.40;41.80
21807;DHT22;11065;50.786;7.840;2023-09-07T09:23:48;43.00;42.10
21807;DHT22;11065;50.786;7.840;2023-09-07T09:26:17;43.60;40.70
21807;DHT22;11065;50.786;7.840;2023-09-07T09:28:46;44.10;39.70
21807;DHT22;11065;50.786;7.840;2023-09-07T09:31:14;44.60;38.70
21807;DHT22;11065;50.786;7.840;2023-09-07T09:33:47;45.10;37.80
21807;DHT22;11065;50.786;7.840;2023-09-07T09:36:17;45.50;37.00
21807;DHT22;11065;50.786;7.840;2023-09-07T09:38:47;45.90;35.80
21807;DHT22;11065;50.786;7.840;2023-09-07T09:41:17;46.30;35.10
21807;DHT22;11065;50.786;7.840;2023-09-07T09:43:46;46.70;34.70
21807;DHT22;11065;50.786;7.840;2023-09-07T09:46:16;47.10;34.30
21807;DHT22;11065;50.786;7.840;2023-09-07T09:48:44;47.30;33.60
21807;DHT22;11065;50.786;7.840;2023-09-07T09:51:15;47.60;33.00
21807;DHT22;11065;50.786;7.840;2023-09-07T09:53:45;47.80;32.40
21807;DHT22;11065;50.786;7.840;2023-09-07T09:56:13;48.00;32.00
21807;DHT22;11065;50.786;7.840;2023-09-07T09:58:41;48.20;31.50
21807;DHT22;11065;50.786;7.840;2023-09-07T10:01:10;48.40;31.20
21807;DHT22;11065;50.786;7.840;2023-09-07T10:03:44;48.60;30.40
21807;DHT22;11065;50.786;7.840;2023-09-07T10:06:22;48.80;30.10
21807;DHT22;11065;50.786;7.840;2023-09-07T10:08:57;49.10;29.60
21807;DHT22;11065;50.786;7.840;2023-09-07T10:11:32;49.20;29.40
21807;DHT22;11065;50.786;7.840;2023-09-07T10:14:01;49.40;29.00
21807;DHT22;11065;50.786;7.840;2023-09-07T10:16:41;49.50;29.40
21807;DHT22;11065;50.786;7.840;2023-09-07T10:19:17;49.70;28.60
21807;DHT22;11065;50.786;7.840;2023-09-07T10:21:47;49.80;28.20
21807;DHT22;11065;50.786;7.840;2023-09-07T10:24:25;49.80;28.50
21807;DHT22;11065;50.786;7.840;2023-09-07T10:26:58;50.00;27.90
21807;DHT22;11065;50.786;7.840;2023-09-07T10:29:26;50.00;27.80
21807;DHT22;11065;50.786;7.840;2023-09-07T10:31:54;50.10;28.00
21807;DHT22;11065;50.786;7.840;2023-09-07T10:34:34;50.20;27.80
21807;DHT22;11065;50.786;7.840;2023-09-07T10:37:05;50.30;27.20
21807;DHT22;11065;50.786;7.840;2023-09-07T10:39:35;50.30;27.30
21807;DHT22;11065;50.786;7.840;2023-09-07T10:42:05;50.40;27.30
21807;DHT22;11065;50.786;7.840;2023-09-07T10:44:33;50.40;27.20
21807;DHT22;11065;50.786;7.840;2023-09-07T10:47:04;50.40;26.90
21807;DHT22;11065;50.786;7.840;2023-09-07T10:49:31;50.40;26.80
21807;DHT22;11065;50.786;7.840;2023-09-07T10:51:59;50.40;26.80
21807;DHT22;11065;50.786;7.840;2023-09-07T10:54:29;50.40;27.10
21807;DHT22;11065;50.786;7.840;2023-09-07T10:56:57;50.40;26.50
21807;DHT22;11065;50.786;7.840;2023-09-07T10:59:34;50.40;26.50
21807;DHT22;11065;50.786;7.840;2023-09-07T11:02:04;50.50;26.30
21807;DHT22;11065;50.786;7.840;2023-09-07T11:04:33;50.50;26.10
21807;DHT22;11065;50.786;7.840;2023-09-07T11:07:01;50.50;26.40
21807;DHT22;11065;50.786;7.840;2023-09-07T11:09:32;50.50;25.90
21807;DHT22;11065;50.786;7.840;2023-09-07T11:12:04;50.50;25.80
21807;DHT22;11065;50.786;7.840;2023-09-07T11:14:32;50.50;25.50
21807;DHT22;11065;50.786;7.840;2023-09-07T11:17:01;50.40;25.70
21807;DHT22;11065;50.786;7.840;2023-09-07T11:19:32;50.40;25.50
21807;DHT22;11065;50.786;7.840;2023-09-07T11:22:00;50.40;25.50
21807;DHT22;11065;50.786;7.840;2023-09-07T11:24:32;50.40;25.40
21807;DHT22;11065;50.786;7.840;2023-09-07T11:27:02;50.30;25.20
21807;DHT22;11065;50.786;7.840;2023-09-07T11:29:31;50.20;25.10
21807;DHT22;11065;50.786;7.840;2023-09-07T11:32:06;50.00;25.00
21807;DHT22;11065;50.786;7.840;2023-09-07T11:34:34;50.00;24.80
21807;DHT22;11065;50.786;7.840;2023-09-07T11:37:02;49.90;25.00
21807;DHT22;11065;50.786;7.840;2023-09-07T11:39:32;49.80;25.00
21807;DHT22;11065;50.786;7.840;2023-09-07T11:42:00;49.70;25.00
21807;DHT22;11065;50.786;7.840;2023-09-07T11:44:28;49.70;24.90
21807;DHT22;11065;50.786;7.840;2023-09-07T11:46:56;49.60;24.80
21807;DHT22;11065;50.786;7.840;2023-09-07T11:49:24;49.60;24.80
21807;DHT22;11065;50.786;7.840;2023-09-07T11:51:52;49.50;24.80
21807;DHT22;11065;50.786;7.840;2023-09-07T11:54:20;49.50;24.90
21807;DHT22;11065;50.786;7.840;2023-09-07T11:56:51;49.40;24.80
21807;DHT22;11065;50.786;7.840;2023-09-07T11:59:19;49.30;24.70
21807;DHT22;11065;50.786;7.840;2023-09-07T12:01:47;49.30;24.70
21807;DHT22;11065;50.786;7.840;2023-09-07T12:04:15;49.20;24.60
21807;DHT22;11065;50.786;7.840;2023-09-07T12:06:44;49.10;24.50
21807;DHT22;11065;50.786;7.840;2023-09-07T12:09:11;49.00;24.50
21807;DHT22;11065;50.786;7.840;2023-09-07T12:11:41;49.00;24.50
21807;DHT22;11065;50.786;7.840;2023-09-07T12:14:11;48.90;24.40
21807;DHT22;11065;50.786;7.840;2023-09-07T12:16:39;48.80;24.30
21807;DHT22;11065;50.786;7.840;2023-09-07T12:19:07;48.60;24.30
21807;DHT22;11065;50.786;7.840;2023-09-07T12:21:35;48.50;24.30
21807;DHT22;11065;50.786;7.840;2023-09-07T12:24:03;48.40;24.30
21807;DHT22;11065;50.786;7.840;2023-09-07T12:26:32;48.30;24.20
21807;DHT22;11065;50.786;7.840;2023-09-07T12:29:00;48.10;24.20
21807;DHT22;11065;50.786;7.840;2023-09-07T12:31:30;48.10;24.30
21807;DHT22;11065;50.786;7.840;2023-09-07T12:33:58;48.00;24.20
21807;DHT22;11065;50.786;7.840;2023-09-07T12:36:26;47.90;24.20
21807;DHT22;11065;50.786;7.840;2023-09-07T12:38:56;47.80;24.10
21807;DHT22;11065;50.786;7.840;2023-09-07T12:41:27;47.70;24.20
21807;DHT22;11065;50.786;7.840;2023-09-07T12:43:55;47.50;24.10
21807;DHT22;11065;50.786;7.840;2023-09-07T12:46:23;47.50;24.20
21807;DHT22;11065;50.786;7.840;2023-09-07T12:48:52;47.40;24.10
21807;DHT22;11065;50.786;7.840;2023-09-07T12:51:20;47.30;24.20
21807;DHT22;11065;50.786;7.840;2023-09-07T12:53:49;47.10;24.10
21807;DHT22;11065;50.786;7.840;2023-09-07T12:56:17;47.10;24.20
21807;DHT22;11065;50.786;7.840;2023-09-07T12:58:46;46.90;24.10
21807;DHT22;11065;50.786;7.840;2023-09-07T13:01:14;46.80;24.10
21807;DHT22;11065;50.786;7.840;2023-09-07T13:03:43;46.60;24.00
21807;DHT22;11065;50.786;7.840;2023-09-07T13:06:12;46.50;24.00
21807;DHT22;11065;50.786;7.840;2023-09-07T13:08:40;46.40;24.00
21807;DHT22;11065;50.786;7.840;2023-09-07T13:11:08;46.20;23.90
21807;DHT22;11065;50.786;7.840;2023-09-07T13:13:36;46.20;24.00
21807;DHT22;11065;50.786;7.840;2023-09-07T13:16:05;46.00;24.00
21807;DHT22;11065;50.786;7.840;2023-09-07T13:18:33;46.00;24.00
21807;DHT22;11065;50.786;7.840;2023-09-07T13:21:01;45.90;24.00
21807;DHT22;11065;50.786;7.840;2023-09-07T13:23:30;45.70;24.00
21807;DHT22;11065;50.786;7.840;2023-09-07T13:25:59;45.70;24.00
21807;DHT22;11065;50.786;7.840;2023-09-07T13:28:27;45.60;24.10
21807;DHT22;11065;50.786;7.840;2023-09-07T13:30:59;45.50;24.00
21807;DHT22;11065;50.786;7.840;2023-09-07T13:33:27;45.40;24.30
21807;DHT22;11065;50.786;7.840;2023-09-07T13:35:56;45.40;24.10
21807;DHT22;11065;50.786;7.840;2023-09-07T13:38:24;45.30;24.20
21807;DHT22;11065;50.786;7.840;2023-09-07T13:40:53;45.20;24.20
21807;DHT22;11065;50.786;7.840;2023-09-07T13:43:22;45.20;24.20
21807;DHT22;11065;50.786;7.840;2023-09-07T13:45:50;45.10;24.10
21807;DHT22;11065;50.786;7.840;2023-09-07T13:48:17;45.00;24.20
21807;DHT22;11065;50.786;7.840;2023-09-07T13:50:45;44.90;24.20
21807;DHT22;11065;50.786;7.840;2023-09-07T13:53:13;44.80;24.30
21807;DHT22;11065;50.786;7.840;2023-09-07T13:55:41;44.80;24.20
21807;DHT22;11065;50.786;7.840;2023-09-07T13:58:14;44.80;24.40
21807;DHT22;11065;50.786;7.840;2023-09-07T14:00:43;44.70;24.40
21807;DHT22;11065;50.786;7.840;2023-09-07T14:03:10;44.60;24.40
21807;DHT22;11065;50.786;7.840;2023-09-07T14:05:38;44.60;24.50
21807;DHT22;11065;50.786;7.840;2023-09-07T14:08:07;44.50;24.50
21807;DHT22;11065;50.786;7.840;2023-09-07T14:10:35;44.40;24.40
21807;DHT22;11065;50.786;7.840;2023-09-07T14:13:03;44.30;24.40
21807;DHT22;11065;50.786;7.840;2023-09-07T14:15:32;44.20;24.40
21807;DHT22;11065;50.786;7.840;2023-09-07T14:18:00;44.10;24.50
21807;DHT22;11065;50.786;7.840;2023-09-07T14:20:29;43.90;24.50
21807;DHT22;11065;50.786;7.840;2023-09-07T14:22:57;43.90;24.70
21807;DHT22;11065;50.786;7.840;2023-09-07T14:25:26;43.80;24.70
21807;DHT22;11065;50.786;7.840;2023-09-07T14:27:55;43.60;24.80
21807;DHT22;11065;50.786;7.840;2023-09-07T14:30:24;43.60;24.90
21807;DHT22;11065;50.786;7.840;2023-09-07T14:32:57;43.50;25.00
21807;DHT22;11065;50.786;7.840;2023-09-07T14:35:27;43.40;25.00
21807;DHT22;11065;50.786;7.840;2023-09-07T14:37:57;43.30;25.00
21807;DHT22;11065;50.786;7.840;2023-09-07T14:40:25;43.20;25.00
21807;DHT22;11065;50.786;7.840;2023-09-07T14:42:53;43.10;25.10
21807;DHT22;11065;50.786;7.840;2023-09-07T14:45:24;43.00;25.00
21807;DHT22;11065;50.786;7.840;2023-09-07T14:47:53;42.90;25.10
21807;DHT22;11065;50.786;7.840;2023-09-07T14:50:22;42.80;25.20
21807;DHT22;11065;50.786;7.840;2023-09-07T14:52:50;42.70;25.10
21807;DHT22;11065;50.786;7.840;2023-09-07T14:55:18;42.60;25.10
21807;DHT22;11065;50.786;7.840;2023-09-07T14:57:46;42.50;25.00
21807;DHT22;11065;50.786;7.840;2023-09-07T15:00:14;42.40;25.20
21807;DHT22;11065;50.786;7.840;2023-09-07T15:02:42;42.30;25.10
21807;DHT22;11065;50.786;7.840;2023-09-07T15:05:11;42.20;25.20
21807;DHT22;11065;50.786;7.840;2023-09-07T15:07:40;42.10;25.30
21807;DHT22;11065;50.786;7.840;2023-09-07T15:10:09;42.10;25.50
21807;DHT22;11065;50.786;7.840;2023-09-07T15:12:40;41.90;25.50
21807;DHT22;11065;50.786;7.840;2023-09-07T15:15:08;41.80;25.50
21807;DHT22;11065;50.786;7.840;2023-09-07T15:17:38;41.80;25.60
21807;DHT22;11065;50.786;7.840;2023-09-07T15:20:07;41.70;25.70
21807;DHT22;11065;50.786;7.840;2023-09-07T15:22:36;41.50;25.70
21807;DHT22;11065;50.786;7.840;2023-09-07T15:25:06;41.40;25.70
21807;DHT22;11065;50.786;7.840;2023-09-07T15:27:34;41.30;25.70
21807;DHT22;11065;50.786;7.840;2023-09-07T15:30:03;41.20;25.90
21807;DHT22;11065;50.786;7.840;2023-09-07T15:32:31;41.10;26.00
21807;DHT22;11065;50.786;7.840;2023-09-07T15:35:00;41.00;26.00
21807;DHT22;11065;50.786;7.840;2023-09-07T15:37:28;40.90;26.00
21807;DHT22;11065;50.786;7.840;2023-09-07T15:39:56;40.80;26.00
21807;DHT22;11065;50.786;7.840;2023-09-07T15:42:25;40.70;26.10